sensor_id;sensor_type;location;lat;lon;timestamp;pressure;altitude;pressure_sealevel;temperature;humidity
31771;BME280;18343;50.152;8.182;2023-01-06T00:01:01;97886.22;;;11.40;100.00
31771;BME280;18343;50.152;8.182;2023-01-06T00:03:50;97878.81;;;11.27;100.00
31771;BME280;18343;50.152;8.182;2023-01-06T00:06:35;97877.59;;;11.30;100.00
31771;BME280;18343;50.152;8.182;2023-01-06T00:09:19;97875.00;;;11.22;100.00
31771;BME280;18343;50.152;8.182;2023-01-06T00:12:06;97874.81;;;11.23;100.00
31771;BME280;18343;50.152;8.182;2023-01-06T00:14:50;97877.78;;;11.28;100.00
31771;BME280;18343;50.152;8.182;2023-01-06T00:17:35;97875.09;;;11.28;100.00
31771;BME280;18343;50.152;8.182;2023-01-06T00:20:21;97865.81;;;11.31;100.00
31771;BME280;18343;50.152;8.182;2023-01-06T00:23:05;97866.81;;;11.30;100.00
31771;BME280;18343;50.152;8.182;2023-01-06T00:25:50;97863.75;;;11.33;100.00
31771;BME280;18343;50.152;8.182;2023-01-06T00:28:35;97863.47;;;11.28;100.00
31771;BME280;18343;50.152;8.182;2023-01-06T00:31:20;97862.09;;;11.32;100.00
31771;BME280;18343;50.152;8.182;2023-01-06T00:34:05;97864.88;;;11.38;100.00
31771;BME280;18343;50.152;8.182;2023-01-06T00:36:51;97863.03;;;11.39;100.00
31771;BME280;18343;50.152;8.182;2023-01-06T00:39:36;97856.25;;;11.43;100.00
31771;BME280;18343;50.152;8.182;2023-01-06T00:42:20;97860.06;;;11.34;100.00
31771;BME280;18343;50.152;8.182;2023-01-06T00:45:06;97858.47;;;11.39;100.00
31771;BME280;18343;50.152;8.182;2023-01-06T00:47:50;97853.09;;;11.39;100.00
31771;BME280;18343;50.152;8.182;2023-01-06T00:50:35;97851.50;;;11.45;100.00
31771;BME280;18343;50.152;8.182;2023-01-06T00:53:21;97856.88;;;11.45;100.00
31771;BME280;18343;50.152;8.182;2023-01-06T00:56:06;97843.66;;;11.50;100.00
31771;BME280;18343;50.152;8.182;2023-01-06T00:58:51;97846.81;;;11.53;100.00
31771;BME280;18343;50.152;8.182;2023-01-06T01:01:36;97842.09;;;11.56;100.00
31771;BME280;18343;50.152;8.182;2023-01-06T01:04:21;97843.38;;;11.60;100.00
31771;BME280;18343;50.152;8.182;2023-01-06T01:07:06;97853.78;;;11.63;100.00
31771;BME280;18343;50.152;8.182;2023-01-06T01:09:53;97853.97;;;11.61;100.00
31771;BME280;18343;50.152;8.182;2023-01-06T01:12:37;97851.94;;;11.63;100.00
31771;BME280;18343;50.152;8.182;2023-01-06T01:15:22;97851.94;;;11.63;100.00
31771;BME280;18343;50.152;8.182;2023-01-06T01:18:06;97852.19;;;11.68;100.00
31771;BME280;18343;50.152;8.182;2023-01-06T01:20:51;97844.94;;;11.69;100.00
31771;BME280;18343;50.152;8.182;2023-01-06T01:23:36;97847.66;;;11.69;100.00
31771;BME280;18343;50.152;8.182;2023-01-06T01:26:24;97841.16;;;11.63;100.00
31771;BME280;18343;50.152;8.182;2023-01-06T01:29:10;97839.84;;;11.59;100.00
31771;BME280;18343;50.152;8.182;2023-01-06T01:31:55;97836.97;;;11.61;100.00
31771;BME280;18343;50.152;8.182;2023-01-06T01:34:40;97849.66;;;11.45;100.00
31771;BME280;18343;50.152;8.182;2023-01-06T01:37:24;97843.16;;;11.40;100.00
31771;BME280;18343;50.152;8.182;2023-01-06T01:40:10;97838.50;;;11.48;100.00
31771;BME280;18343;50.152;8.182;2023-01-06T01:42:57;97844.50;;;11.50;100.00
31771;BME280;18343;50.152;8.182;2023-01-06T01:45:42;97845.75;;;11.48;100.00
31771;BME280;18343;50.152;8.182;2023-01-06T01:48:33;97844.69;;;11.49;100.00
31771;BME280;18343;50.152;8.182;2023-01-06T01:51:23;97853.19;;;11.46;100.00
31771;BME280;18343;50.152;8.182;2023-01-06T01:54:15;97850.41;;;11.39;100.00
31771;BME280;18343;50.152;8.182;2023-01-06T01:57:07;97849.84;;;11.44;100.00
31771;BME280;18343;50.152;8.182;2023-01-06T01:59:55;97851.31;;;11.46;100.00
31771;BME280;18343;50.152;8.182;2023-01-06T02:02:41;97856.25;;;11.43;100.00
31771;BME280;18343;50.152;8.182;2023-01-06T02:05:27;97862.47;;;11.43;100.00
31771;BME280;18343;50.152;8.182;2023-01-06T02:08:23;97868.59;;;11.23;100.00
31771;BME280;18343;50.152;8.182;2023-01-06T02:11:10;97876.19;;;11.34;100.00
31771;BME280;18343;50.152;8.182;2023-01-06T02:14:06;97874.06;;;11.29;100.00
31771;BME280;18343;50.152;8.182;2023-01-06T02:17:10;97868.78;;;11.36;100.00
31771;BME280;18343;50.152;8.182;2023-01-06T02:20:50;97867.75;;;11.37;100.00
31771;BME280;18343;50.152;8.182;2023-01-06T02:24:20;97870.06;;;11.40;100.00
31771;BME280;18343;50.152;8.182;2023-01-06T02:27:52;97861.47;;;11.15;100.00
31771;BME280;18343;50.152;8.182;2023-01-06T02:31:39;97845.38;;;11.22;100.00
31771;BME280;18343;50.152;8.182;2023-01-06T02:34:42;97846.97;;;11.01;100.00
31771;BME280;18343;50.152;8.182;2023-01-06T02:37:43;97837.13;;;10.79;100.00
31771;BME280;18343;50.152;8.182;2023-01-06T02:40:47;97834.47;;;10.94;100.00
31771;BME280;18343;50.152;8.182;2023-01-06T02:43:45;97832.38;;;10.96;100.00
31771;BME280;18343;50.152;8.182;2023-01-06T02:46:55;97829.81;;;11.02;100.00
31771;BME280;18343;50.152;8.182;2023-01-06T02:49:47;97822.00;;;11.07;100.00
31771;BME280;18343;50.152;8.182;2023-01-06T02:52:44;97815.50;;;11.02;100.00
31771;BME280;18343;50.152;8.182;2023-01-06T02:55:36;97817.25;;;10.95;100.00
31771;BME280;18343;50.152;8.182;2023-01-06T02:58:29;97818.00;;;10.74;100.00
31771;BME280;18343;50.152;8.182;2023-01-06T03:01:19;97810.59;;;10.76;100.00
31771;BME280;18343;50.152;8.182;2023-01-06T03:04:12;97810.97;;;10.58;100.00
31771;BME280;18343;50.152;8.182;2023-01-06T03:06:59;97822.06;;;10.55;100.00
31771;BME280;18343;50.152;8.182;2023-01-06T03:09:45;97816.88;;;10.54;100.00
31771;BME280;18343;50.152;8.182;2023-01-06T03:12:35;97818.84;;;10.60;100.00
31771;BME280;18343;50.152;8.182;2023-01-06T03:15:23;97815.44;;;10.66;100.00
31771;BME280;18343;50.152;8.182;2023-01-06T03:18:08;97805.03;;;10.77;100.00
31771;BME280;18343;50.152;8.182;2023-01-06T03:20:57;97800.41;;;10.86;100.00
31771;BME280;18343;50.152;8.182;2023-01-06T03:23:44;97802.16;;;10.79;100.00
31771;BME280;18343;50.152;8.182;2023-01-06T03:26:30;97799.75;;;10.84;100.00
31771;BME280;18343;50.152;8.182;2023-01-06T03:29:16;97803.66;;;10.81;100.00
31771;BME280;18343;50.152;8.182;2023-01-06T03:32:08;97798.91;;;10.83;100.00
31771;BME280;18343;50.152;8.182;2023-01-06T03:35:05;97785.84;;;10.80;100.00
31771;BME280;18343;50.152;8.182;2023-01-06T03:38:00;97784.34;;;10.63;100.00
31771;BME280;18343;50.152;8.182;2023-01-06T03:40:54;97791.94;;;10.60;100.00
31771;BME280;18343;50.152;8.182;2023-01-06T03:43:48;97782.75;;;10.69;100.00
31771;BME280;18343;50.152;8.182;2023-01-06T03:46:38;97786.09;;;10.71;100.00
31771;BME280;18343;50.152;8.182;2023-01-06T03:49:29;97783.03;;;10.74;100.00
31771;BME280;18343;50.152;8.182;2023-01-06T03:52:21;97779.41;;;10.52;100.00
31771;BME280;18343;50.152;8.182;2023-01-06T03:55:13;97778.22;;;10.55;100.00
31771;BME280;18343;50.152;8.182;2023-01-06T03:58:00;97786.19;;;10.48;100.00
31771;BME280;18343;50.152;8.182;2023-01-06T04:00:47;97788.38;;;10.30;100.00
31771;BME280;18343;50.152;8.182;2023-01-06T04:03:32;97790.16;;;10.37;100.00
31771;BME280;18343;50.152;8.182;2023-01-06T04:06:18;97794.53;;;10.53;100.00
31771;BME280;18343;50.152;8.182;2023-01-06T04:09:03;97800.50;;;10.63;100.00
31771;BME280;18343;50.152;8.182;2023-01-06T04:11:49;97789.72;;;10.63;100.00
31771;BME280;18343;50.152;8.182;2023-01-06T04:14:34;97794.63;;;10.74;100.00
31771;BME280;18343;50.152;8.182;2023-01-06T04:17:18;97790.09;;;10.75;100.00
31771;BME280;18343;50.152;8.182;2023-01-06T04:20:04;97791.59;;;10.63;100.00
31771;BME280;18343;50.152;8.182;2023-01-06T04:22:49;97783.50;;;10.63;100.00
31771;BME280;18343;50.152;8.182;2023-01-06T04:25:36;97791.84;;;10.68;100.00
31771;BME280;18343;50.152;8.182;2023-01-06T04:28:22;97788.13;;;10.69;100.00
31771;BME280;18343;50.152;8.182;2023-01-06T04:31:07;97783.59;;;10.55;100.00
31771;BME280;18343;50.152;8.182;2023-01-06T04:33:51;97780.31;;;10.44;100.00
31771;BME280;18343;50.152;8.182;2023-01-06T04:36:36;97778.88;;;10.57;100.00
31771;BME280;18343;50.152;8.182;2023-01-06T04:39:21;97785.81;;;10.36;100.00
31771;BME280;18343;50.152;8.182;2023-01-06T04:42:05;97787.31;;;10.54;100.00
31771;BME280;18343;50.152;8.182;2023-01-06T04:44:51;97782.41;;;10.57;100.00
31771;BME280;18343;50.152;8.182;2023-01-06T04:47:36;97785.06;;;10.42;100.00
31771;BME280;18343;50.152;8.182;2023-01-06T04:50:20;97794.72;;;10.51;100.00
31771;BME280;18343;50.152;8.182;2023-01-06T04:53:06;97790.66;;;10.56;100.00
31771;BME280;18343;50.152;8.182;2023-01-06T04:55:52;97784.22;;;10.42;100.00
31771;BME280;18343;50.152;8.182;2023-01-06T04:58:37;97782.84;;;10.08;100.00
31771;BME280;18343;50.152;8.182;2023-01-06T05:01:24;97781.22;;;9.99;100.00
31771;BME280;18343;50.152;8.182;2023-01-06T05:04:09;97773.38;;;10.12;100.00
31771;BME280;18343;50.152;8.182;2023-01-06T05:06:54;97780.88;;;10.17;100.00
31771;BME280;18343;50.152;8.182;2023-01-06T05:09:38;97780.59;;;10.35;100.00
31771;BME280;18343;50.152;8.182;2023-01-06T05:12:23;97782.22;;;10.21;100.00
31771;BME280;18343;50.152;8.182;2023-01-06T05:15:10;97768.63;;;10.00;100.00
31771;BME280;18343;50.152;8.182;2023-01-06T05:17:56;97770.66;;;9.98;100.00
31771;BME280;18343;50.152;8.182;2023-01-06T05:20:41;97768.75;;;10.06;100.00
31771;BME280;18343;50.152;8.182;2023-01-06T05:23:25;97781.56;;;10.19;100.00
31771;BME280;18343;50.152;8.182;2023-01-06T05:26:17;97774.19;;;10.13;100.00
31771;BME280;18343;50.152;8.182;2023-01-06T05:29:01;97766.78;;;10.15;100.00
31771;BME280;18343;50.152;8.182;2023-01-06T05:31:46;97775.69;;;10.15;100.00
31771;BME280;18343;50.152;8.182;2023-01-06T05:34:32;97781.22;;;9.99;100.00
31771;BME280;18343;50.152;8.182;2023-01-06T05:37:16;97775.69;;;10.15;100.00
31771;BME280;18343;50.152;8.182;2023-01-06T05:40:01;97777.66;;;10.07;100.00
31771;BME280;18343;50.152;8.182;2023-01-06T05:42:46;97771.66;;;9.97;100.00
31771;BME280;18343;50.152;8.182;2023-01-06T05:45:30;97760.03;;;10.04;100.00
31771;BME280;18343;50.152;8.182;2023-01-06T05:48:15;97770.44;;;9.84;100.00
31771;BME280;18343;50.152;8.182;2023-01-06T05:51:02;97783.56;;;10.02;100.00
31771;BME280;18343;50.152;8.182;2023-01-06T05:53:47;97788.56;;;10.05;100.00
31771;BME280;18343;50.152;8.182;2023-01-06T05:56:32;97781.53;;;10.04;100.00
31771;BME280;18343;50.152;8.182;2023-01-06T05:59:17;97781.75;;;9.95;100.00
31771;BME280;18343;50.152;8.182;2023-01-06T06:02:01;97767.63;;;10.01;100.00
31771;BME280;18343;50.152;8.182;2023-01-06T06:04:46;97778.56;;;9.76;100.00
31771;BME280;18343;50.152;8.182;2023-01-06T06:07:32;97777.41;;;9.94;100.00
31771;BME280;18343;50.152;8.182;2023-01-06T06:10:16;97776.44;;;9.64;100.00
31771;BME280;18343;50.152;8.182;2023-01-06T06:13:00;97778.97;;;9.65;100.00
31771;BME280;18343;50.152;8.182;2023-01-06T06:15:45;97775.59;;;9.86;100.00
31771;BME280;18343;50.152;8.182;2023-01-06T06:18:30;97777.63;;;9.61;100.00
31771;BME280;18343;50.152;8.182;2023-01-06T06:21:16;97769.78;;;9.82;100.00
31771;BME280;18343;50.152;8.182;2023-01-06T06:24:03;97777.47;;;9.85;100.00
31771;BME280;18343;50.152;8.182;2023-01-06T06:26:48;97780.88;;;10.02;100.00
31771;BME280;18343;50.152;8.182;2023-01-06T06:29:33;97782.72;;;10.02;100.00
31771;BME280;18343;50.152;8.182;2023-01-06T06:32:18;97786.19;;;10.10;100.00
31771;BME280;18343;50.152;8.182;2023-01-06T06:35:03;97779.31;;;10.08;100.00
31771;BME280;18343;50.152;8.182;2023-01-06T06:37:48;97774.13;;;10.06;100.00
31771;BME280;18343;50.152;8.182;2023-01-06T06:40:37;97788.09;;;9.79;100.00
31771;BME280;18343;50.152;8.182;2023-01-06T06:43:22;97786.06;;;9.81;100.00
31771;BME280;18343;50.152;8.182;2023-01-06T06:46:07;97780.94;;;9.94;100.00
31771;BME280;18343;50.152;8.182;2023-01-06T06:48:52;97785.69;;;9.61;100.00
31771;BME280;18343;50.152;8.182;2023-01-06T06:51:37;97784.59;;;9.78;100.00
31771;BME280;18343;50.152;8.182;2023-01-06T06:54:21;97778.13;;;9.88;100.00
31771;BME280;18343;50.152;8.182;2023-01-06T06:57:07;97780.59;;;9.74;100.00
31771;BME280;18343;50.152;8.182;2023-01-06T06:59:52;97775.03;;;9.76;100.00
31771;BME280;18343;50.152;8.182;2023-01-06T07:02:36;97768.38;;;9.87;100.00
31771;BME280;18343;50.152;8.182;2023-01-06T07:05:21;97768.81;;;9.75;100.00
31771;BME280;18343;50.152;8.182;2023-01-06T07:08:05;97772.22;;;9.92;100.00
31771;BME280;18343;50.152;8.182;2023-01-06T07:10:50;97777.53;;;10.00;100.00
31771;BME280;18343;50.152;8.182;2023-01-06T07:13:36;97763.38;;;10.06;100.00
31771;BME280;18343;50.152;8.182;2023-01-06T07:16:20;97777.38;;;10.16;100.00
31771;BME280;18343;50.152;8.182;2023-01-06T07:19:05;97769.53;;;9.92;100.00
31771;BME280;18343;50.152;8.182;2023-01-06T07:21:51;97780.09;;;9.94;100.00
31771;BME280;18343;50.152;8.182;2023-01-06T07:24:36;97776.31;;;10.03;100.00
31771;BME280;18343;50.152;8.182;2023-01-06T07:27:20;97779.38;;;10.00;100.00
31771;BME280;18343;50.152;8.182;2023-01-06T07:30:08;97788.44;;;9.99;100.00
31771;BME280;18343;50.152;8.182;2023-01-06T07:32:53;97791.25;;;10.05;100.00
31771;BME280;18343;50.152;8.182;2023-01-06T07:35:37;97805.09;;;9.94;100.00
31771;BME280;18343;50.152;8.182;2023-01-06T07:38:23;97801.22;;;9.97;100.00
31771;BME280;18343;50.152;8.182;2023-01-06T07:41:08;97793.81;;;9.99;100.00
31771;BME280;18343;50.152;8.182;2023-01-06T07:43:52;97792.63;;;10.01;100.00
31771;BME280;18343;50.152;8.182;2023-01-06T07:46:39;97787.72;;;10.05;100.00
31771;BME280;18343;50.152;8.182;2023-01-06T07:49:23;97806.41;;;9.98;100.00
31771;BME280;18343;50.152;8.182;2023-01-06T07:52:08;97814.59;;;9.82;100.00
31771;BME280;18343;50.152;8.182;2023-01-06T07:54:52;97813.03;;;9.65;100.00
31771;BME280;18343;50.152;8.182;2023-01-06T07:57:37;97807.44;;;9.74;100.00
31771;BME280;18343;50.152;8.182;2023-01-06T08:00:22;97816.09;;;9.84;100.00
31771;BME280;18343;50.152;8.182;2023-01-06T08:03:09;97808.75;;;9.78;100.00
31771;BME280;18343;50.152;8.182;2023-01-06T08:05:53;97811.63;;;10.00;100.00
31771;BME280;18343;50.152;8.182;2023-01-06T08:08:39;97813.16;;;9.71;100.00
31771;BME280;18343;50.152;8.182;2023-01-06T08:11:24;97816.03;;;9.93;100.00
31771;BME280;18343;50.152;8.182;2023-01-06T08:14:10;97807.97;;;9.93;100.00
31771;BME280;18343;50.152;8.182;2023-01-06T08:16:54;97803.19;;;10.03;100.00
31771;BME280;18343;50.152;8.182;2023-01-06T08:19:40;97803.19;;;10.03;100.00
31771;BME280;18343;50.152;8.182;2023-01-06T08:22:25;97804.16;;;10.10;100.00
31771;BME280;18343;50.152;8.182;2023-01-06T08:25:10;97797.63;;;10.27;100.00
31771;BME280;18343;50.152;8.182;2023-01-06T08:27:56;97798.28;;;10.29;100.00
31771;BME280;18343;50.152;8.182;2023-01-06T08:30:45;97802.94;;;10.35;100.00
31771;BME280;18343;50.152;8.182;2023-01-06T08:33:29;97808.88;;;10.31;100.00
31771;BME280;18343;50.152;8.182;2023-01-06T08:36:18;97799.13;;;10.30;100.00
31771;BME280;18343;50.152;8.182;2023-01-06T08:39:03;97802.47;;;10.09;100.00
31771;BME280;18343;50.152;8.182;2023-01-06T08:41:47;97803.06;;;10.19;100.00
31771;BME280;18343;50.152;8.182;2023-01-06T08:44:32;97800.16;;;10.29;100.00
31771;BME280;18343;50.152;8.182;2023-01-06T08:47:16;97811.00;;;10.35;100.00
31771;BME280;18343;50.152;8.182;2023-01-06T08:50:01;97810.84;;;10.37;100.00
31771;BME280;18343;50.152;8.182;2023-01-06T08:52:47;97817.28;;;10.28;100.00
31771;BME280;18343;50.152;8.182;2023-01-06T08:55:31;97820.84;;;10.43;100.00
31771;BME280;18343;50.152;8.182;2023-01-06T08:58:16;97822.44;;;10.37;100.00
31771;BME280;18343;50.152;8.182;2023-01-06T09:01:01;97836.00;;;10.21;100.00
31771;BME280;18343;50.152;8.182;2023-01-06T09:03:45;97815.44;;;10.28;100.00
31771;BME280;18343;50.152;8.182;2023-01-06T09:06:30;97810.72;;;10.30;100.00
31771;BME280;18343;50.152;8.182;2023-01-06T09:09:17;97826.72;;;10.24;100.00
31771;BME280;18343;50.152;8.182;2023-01-06T09:12:01;97824.09;;;10.38;100.00
31771;BME280;18343;50.152;8.182;2023-01-06T09:14:46;97825.38;;;10.42;100.00
31771;BME280;18343;50.152;8.182;2023-01-06T09:17:30;97835.66;;;10.16;100.00
31771;BME280;18343;50.152;8.182;2023-01-06T09:20:15;97835.91;;;10.06;100.00
31771;BME280;18343;50.152;8.182;2023-01-06T09:23:00;97838.69;;;10.13;100.00
31771;BME280;18343;50.152;8.182;2023-01-06T09:25:46;97844.88;;;10.22;100.00
31771;BME280;18343;50.152;8.182;2023-01-06T09:28:31;97839.94;;;10.48;100.00
31771;BME280;18343;50.152;8.182;2023-01-06T09:31:16;97846.97;;;10.34;100.00
31771;BME280;18343;50.152;8.182;2023-01-06T09:34:00;97850.59;;;10.41;100.00
31771;BME280;18343;50.152;8.182;2023-01-06T09:36:45;97852.44;;;10.41;100.00
31771;BME280;18343;50.152;8.182;2023-01-06T09:39:30;97852.19;;;10.50;100.00
31771;BME280;18343;50.152;8.182;2023-01-06T09:42:38;97874.91;;;10.48;100.00
31771;BME280;18343;50.152;8.182;2023-01-06T09:45:36;97882.28;;;10.31;100.00
31771;BME280;18343;50.152;8.182;2023-01-06T09:48:28;97877.13;;;10.44;100.00
31771;BME280;18343;50.152;8.182;2023-01-06T09:51:20;97883.59;;;10.35;100.00
31771;BME280;18343;50.152;8.182;2023-01-06T09:54:15;97879.72;;;10.38;100.00
31771;BME280;18343;50.152;8.182;2023-01-06T09:57:05;97874.53;;;10.36;100.00
31771;BME280;18343;50.152;8.182;2023-01-06T09:59:58;97870.91;;;10.44;100.00
31771;BME280;18343;50.152;8.182;2023-01-06T10:02:44;97863.66;;;10.44;100.00
31771;BME280;18343;50.152;8.182;2023-01-06T10:05:37;97857.13;;;10.24;100.00
31771;BME280;18343;50.152;8.182;2023-01-06T10:08:34;97843.34;;;10.27;100.00
31771;BME280;18343;50.152;8.182;2023-01-06T10:11:30;97834.44;;;10.04;100.00
31771;BME280;18343;50.152;8.182;2023-01-06T10:14:24;97830.09;;;10.17;100.00
31771;BME280;18343;50.152;8.182;2023-01-06T10:17:31;97829.00;;;10.35;100.00
31771;BME280;18343;50.152;8.182;2023-01-06T10:20:52;97833.63;;;10.41;100.00
31771;BME280;18343;50.152;8.182;2023-01-06T10:24:09;97841.53;;;9.97;100.00
31771;BME280;18343;50.152;8.182;2023-01-06T10:27:01;97845.75;;;10.14;100.00
31771;BME280;18343;50.152;8.182;2023-01-06T10:29:54;97830.66;;;10.36;100.00
31771;BME280;18343;50.152;8.182;2023-01-06T10:32:41;97832.34;;;10.37;100.00
31771;BME280;18343;50.152;8.182;2023-01-06T10:35:27;97839.94;;;10.48;100.00
31771;BME280;18343;50.152;8.182;2023-01-06T10:38:13;97847.41;;;10.23;100.00
31771;BME280;18343;50.152;8.182;2023-01-06T10:41:08;97846.53;;;10.45;100.00
31771;BME280;18343;50.152;8.182;2023-01-06T10:43:56;97819.81;;;10.44;100.00
31771;BME280;18343;50.152;8.182;2023-01-06T10:46:41;97811.56;;;10.31;100.00
31771;BME280;18343;50.152;8.182;2023-01-06T10:49:27;97800.28;;;10.50;100.00
31771;BME280;18343;50.152;8.182;2023-01-06T10:52:12;97788.38;;;10.44;100.00
31771;BME280;18343;50.152;8.182;2023-01-06T10:55:02;97794.06;;;10.35;100.00
31771;BME280;18343;50.152;8.182;2023-01-06T10:57:48;97778.00;;;10.41;100.00
31771;BME280;18343;50.152;8.182;2023-01-06T11:00:36;97787.06;;;10.03;100.00
31771;BME280;18343;50.152;8.182;2023-01-06T11:03:20;97792.28;;;10.42;100.00
31771;BME280;18343;50.152;8.182;2023-01-06T11:09:29;97773.03;;;10.53;100.00
31771;BME280;18343;50.152;8.182;2023-01-06T11:12:17;97779.59;;;10.50;100.00
31771;BME280;18343;50.152;8.182;2023-01-06T11:15:06;97778.75;;;10.35;100.00
31771;BME280;18343;50.152;8.182;2023-01-06T11:17:51;97775.72;;;10.38;100.00
31771;BME280;18343;50.152;8.182;2023-01-06T11:20:36;97759.84;;;10.43;100.00
31771;BME280;18343;50.152;8.182;2023-01-06T11:23:22;97757.81;;;10.45;100.00
31771;BME280;18343;50.152;8.182;2023-01-06T11:26:16;97760.13;;;10.48;100.00
31771;BME280;18343;50.152;8.182;2023-01-06T11:29:17;97765.97;;;10.67;100.00
31771;BME280;18343;50.152;8.182;2023-01-06T11:32:10;97763.94;;;10.69;100.00
31771;BME280;18343;50.152;8.182;2023-01-06T11:35:00;97776.00;;;10.88;100.00
31771;BME280;18343;50.152;8.182;2023-01-06T11:37:45;97785.19;;;10.93;100.00
31771;BME280;18343;50.152;8.182;2023-01-06T11:40:33;97787.22;;;10.91;100.00
31771;BME280;18343;50.152;8.182;2023-01-06T11:43:24;97793.25;;;10.78;100.00
31771;BME280;18343;50.152;8.182;2023-01-06T11:46:12;97796.31;;;10.90;100.00
31771;BME280;18343;50.152;8.182;2023-01-06T11:49:02;97787.13;;;10.99;100.00
31771;BME280;18343;50.152;8.182;2023-01-06T11:51:48;97788.84;;;11.22;100.00
31771;BME280;18343;50.152;8.182;2023-01-06T11:54:36;97783.94;;;11.25;100.00
31771;BME280;18343;50.152;8.182;2023-01-06T11:57:30;97787.44;;;11.40;100.00
31771;BME280;18343;50.152;8.182;2023-01-06T12:00:40;97780.72;;;11.00;100.00
31771;BME280;18343;50.152;8.182;2023-01-06T12:03:30;97783.13;;;10.80;100.00
31771;BME280;18343;50.152;8.182;2023-01-06T12:06:26;97772.09;;;10.90;100.00
31771;BME280;18343;50.152;8.182;2023-01-06T12:09:20;97768.66;;;10.96;100.00
31771;BME280;18343;50.152;8.182;2023-01-06T12:12:11;97761.13;;;11.06;100.00
31771;BME280;18343;50.152;8.182;2023-01-06T12:15:00;97755.22;;;11.32;100.00
31771;BME280;18343;50.152;8.182;2023-01-06T12:17:49;97760.44;;;11.55;100.00
31771;BME280;18343;50.152;8.182;2023-01-06T12:20:38;97756.47;;;11.51;100.00
31771;BME280;18343;50.152;8.182;2023-01-06T12:23:27;97760.47;;;11.19;100.00
31771;BME280;18343;50.152;8.182;2023-01-06T12:26:20;97760.53;;;11.26;100.00
31771;BME280;18343;50.152;8.182;2023-01-06T12:29:06;97760.88;;;11.37;100.00
31771;BME280;18343;50.152;8.182;2023-01-06T12:32:01;97772.28;;;11.75;100.00
31771;BME280;18343;50.152;8.182;2023-01-06T12:34:51;97778.31;;;11.77;100.00
31771;BME280;18343;50.152;8.182;2023-01-06T12:37:44;97770.88;;;11.79;100.00
31771;BME280;18343;50.152;8.182;2023-01-06T12:40:33;97770.25;;;11.99;100.00
31771;BME280;18343;50.152;8.182;2023-01-06T12:43:22;97777.31;;;12.00;100.00
31771;BME280;18343;50.152;8.182;2023-01-06T12:46:14;97786.28;;;11.85;100.00
31771;BME280;18343;50.152;8.182;2023-01-06T12:49:05;97785.25;;;12.08;100.00
31771;BME280;18343;50.152;8.182;2023-01-06T12:51:55;97786.34;;;12.13;100.00
31771;BME280;18343;50.152;8.182;2023-01-06T12:54:48;97786.38;;;11.92;100.00
31771;BME280;18343;50.152;8.182;2023-01-06T12:57:48;97790.00;;;11.84;100.00
31771;BME280;18343;50.152;8.182;2023-01-06T13:00:44;97787.13;;;11.50;100.00
31771;BME280;18343;50.152;8.182;2023-01-06T13:04:07;97789.38;;;11.82;100.00
31771;BME280;18343;50.152;8.182;2023-01-06T13:07:10;97791.06;;;11.69;100.00
31771;BME280;18343;50.152;8.182;2023-01-06T13:10:12;97787.94;;;11.50;100.00
31771;BME280;18343;50.152;8.182;2023-01-06T13:13:22;97784.50;;;11.57;100.00
31771;BME280;18343;50.152;8.182;2023-01-06T13:16:25;97790.97;;;11.77;100.00
31771;BME280;18343;50.152;8.182;2023-01-06T13:19:27;97794.56;;;11.84;100.00
31771;BME280;18343;50.152;8.182;2023-01-06T13:22:18;97785.38;;;11.78;100.00
31771;BME280;18343;50.152;8.182;2023-01-06T13:25:41;97786.25;;;11.64;100.00
31771;BME280;18343;50.152;8.182;2023-01-06T13:28:37;97784.50;;;11.57;100.00
31771;BME280;18343;50.152;8.182;2023-01-06T13:35:53;97784.31;;;11.58;100.00
31771;BME280;18343;50.152;8.182;2023-01-06T13:38:55;97791.47;;;11.51;100.00
31771;BME280;18343;50.152;8.182;2023-01-06T13:41:47;97781.31;;;11.32;100.00
31771;BME280;18343;50.152;8.182;2023-01-06T13:44:36;97777.88;;;11.38;100.00
31771;BME280;18343;50.152;8.182;2023-01-06T13:47:23;97777.44;;;11.56;100.00
31771;BME280;18343;50.152;8.182;2023-01-06T13:50:14;97782.56;;;11.50;100.00
31771;BME280;18343;50.152;8.182;2023-01-06T13:53:00;97766.94;;;11.61;100.00
31771;BME280;18343;50.152;8.182;2023-01-06T13:55:45;97784.50;;;11.57;100.00
31771;BME280;18343;50.152;8.182;2023-01-06T13:58:37;97781.97;;;11.70;100.00
31771;BME280;18343;50.152;8.182;2023-01-06T14:01:31;97788.19;;;11.70;100.00
31771;BME280;18343;50.152;8.182;2023-01-06T14:07:49;97785.50;;;11.70;100.00
31771;BME280;18343;50.152;8.182;2023-01-06T14:10:37;97789.47;;;11.74;100.00
31771;BME280;18343;50.152;8.182;2023-01-06T14:13:25;97783.81;;;11.69;100.00
31771;BME280;18343;50.152;8.182;2023-01-06T14:16:12;97779.72;;;11.73;100.00
31771;BME280;18343;50.152;8.182;2023-01-06T14:19:05;97783.94;;;11.61;100.00
31771;BME280;18343;50.152;8.182;2023-01-06T14:21:53;97784.19;;;11.45;100.00
31771;BME280;18343;50.152;8.182;2023-01-06T14:24:42;97793.94;;;11.67;100.00
31771;BME280;18343;50.152;8.182;2023-01-06T14:28:06;97787.97;;;11.86;100.00
31771;BME280;18343;50.152;8.182;2023-01-06T14:31:36;97794.75;;;11.82;100.00
31771;BME280;18343;50.152;8.182;2023-01-06T14:34:21;97790.72;;;11.57;100.00
31771;BME280;18343;50.152;8.182;2023-01-06T14:37:11;97792.28;;;11.66;100.00
31771;BME280;18343;50.152;8.182;2023-01-06T14:39:58;97789.25;;;11.54;100.00
31771;BME280;18343;50.152;8.182;2023-01-06T14:42:45;97791.34;;;11.74;100.00
31771;BME280;18343;50.152;8.182;2023-01-06T14:45:38;97796.06;;;11.36;100.00
31771;BME280;18343;50.152;8.182;2023-01-06T14:48:25;97784.41;;;11.50;100.00
31771;BME280;18343;50.152;8.182;2023-01-06T14:51:15;97788.59;;;11.52;100.00
31771;BME280;18343;50.152;8.182;2023-01-06T14:54:05;97791.25;;;11.46;100.00
31771;BME280;18343;50.152;8.182;2023-01-06T14:56:57;97798.03;;;11.42;100.00